Time;durP1;ratioP1;P1;durP2;ratioP2;P2;SDS_P1;SDS_P2;PMS_P1;PMS_P2;Temp;Humidity;BMP_temperature;BMP_pressure;BME280_temperature;BME280_humidity;BME280_pressure;Samples;Min_cycle;Max_cycle;Signal;HPM_P1;HPM_P2
2023/12/22 00:01:56;;;;;;;34.77;20.60;;;;;;;;;;5112666;28;20203;-80
2023/12/22 00:04:23;;;;;;;38.93;24.57;;;;;;;;;;5109712;28;20192;-80
2023/12/22 00:06:51;;;;;;;13.77;10.10;;;;;;;;;;5094500;28;20223;-80
2023/12/22 00:09:19;;;;;;;12.10;7.17;;;;;;;;;;5103703;28;20196;-80
2023/12/22 00:11:47;;;;;;;20.70;12.60;;;;;;;;;;5107095;28;20199;-80
2023/12/22 00:14:14;;;;;;;11.03;7.00;;;;;;;;;;5095768;28;20709;-80
2023/12/22 00:16:40;;;;;;;10.43;6.17;;;;;;;;;;5102037;28;20196;-80
2023/12/22 00:19:08;;;;;;;27.33;16.00;;;;;;;;;;5094207;28;20200;-80
2023/12/22 00:21:35;;;;;;;17.27;11.60;;;;;;;;;;5101466;28;20192;-80
2023/12/22 00:24:02;;;;;;;10.40;8.30;;;;;;;;;;5115442;28;20199;-80
2023/12/22 00:26:28;;;;;;;9.40;6.37;;;;;;;;;;5113350;28;20203;-80
2023/12/22 00:28:57;;;;;;;159.23;67.37;;;;;;;;;;5115200;28;20191;-80
2023/12/22 00:31:23;;;;;;;20.17;13.00;;;;;;;;;;5114631;28;20673;-80
2023/12/22 00:33:50;;;;;;;11.93;9.67;;;;;;;;;;5114215;28;20590;-80
2023/12/22 00:36:17;;;;;;;16.07;9.43;;;;;;;;;;5102495;28;20566;-80
2023/12/22 00:38:44;;;;;;;12.93;8.43;;;;;;;;;;5093177;28;20250;-80
2023/12/22 00:41:11;;;;;;;9.67;6.77;;;;;;;;;;5100502;28;20203;-81
2023/12/22 00:43:37;;;;;;;9.60;6.77;;;;;;;;;;5097822;28;20574;-81
2023/12/22 00:46:06;;;;;;;9.27;6.87;;;;;;;;;;5093627;28;20207;-80
2023/12/22 00:48:33;;;;;;;7.67;5.87;;;;;;;;;;5102647;28;20191;-81
2023/12/22 00:51:00;;;;;;;9.47;6.63;;;;;;;;;;5114123;28;20646;-81
2023/12/22 00:53:26;;;;;;;10.20;6.50;;;;;;;;;;5113935;28;20222;-81
2023/12/22 00:55:53;;;;;;;10.93;7.07;;;;;;;;;;5113979;28;20200;-81
2023/12/22 00:58:20;;;;;;;9.00;6.70;;;;;;;;;;5113853;28;20666;-80
2023/12/22 01:00:47;;;;;;;7.93;6.50;;;;;;;;;;5114184;28;20199;-81
2023/12/22 01:03:15;;;;;;;8.23;6.30;;;;;;;;;;5114283;28;20199;-81
2023/12/22 01:05:42;;;;;;;8.93;6.90;;;;;;;;;;5097746;28;20208;-81
2023/12/22 01:08:10;;;;;;;8.70;6.90;;;;;;;;;;5093875;28;20199;-81
2023/12/22 01:10:37;;;;;;;10.53;7.67;;;;;;;;;;5113416;28;20192;-81
2023/12/22 01:13:04;;;;;;;7.60;6.30;;;;;;;;;;5114725;28;20199;-81
2023/12/22 01:15:31;;;;;;;8.10;5.97;;;;;;;;;;5112517;28;20219;-80
2023/12/22 01:17:58;;;;;;;7.17;5.37;;;;;;;;;;5113922;28;20259;-80
2023/12/22 01:20:26;;;;;;;11.03;7.30;;;;;;;;;;5114347;28;20199;-80
2023/12/22 01:22:53;;;;;;;8.60;6.30;;;;;;;;;;5113622;28;20199;-80
2023/12/22 01:25:20;;;;;;;7.40;6.53;;;;;;;;;;5113452;28;20199;-79
2023/12/22 01:27:47;;;;;;;6.47;5.23;;;;;;;;;;5102280;28;20192;-79
2023/12/22 01:30:14;;;;;;;8.73;5.30;;;;;;;;;;5093786;28;20257;-80
2023/12/22 01:32:41;;;;;;;9.67;6.70;;;;;;;;;;5108081;28;20203;-80
2023/12/22 01:35:09;;;;;;;10.67;6.23;;;;;;;;;;5114170;28;20252;-81
2023/12/22 01:37:38;;;;;;;10.87;6.93;;;;;;;;;;5113836;28;20200;-80
2023/12/22 01:40:06;;;;;;;6.80;6.10;;;;;;;;;;5111814;28;20183;-79
2023/12/22 01:42:32;;;;;;;6.67;5.57;;;;;;;;;;5113741;28;20222;-79
2023/12/22 01:45:02;;;;;;;7.47;5.80;;;;;;;;;;5112352;28;20200;-79
2023/12/22 01:47:29;;;;;;;8.17;5.90;;;;;;;;;;5111572;28;20206;-80
2023/12/22 01:49:55;;;;;;;7.37;5.57;;;;;;;;;;5113113;28;20678;-79
2023/12/22 01:52:23;;;;;;;9.33;6.57;;;;;;;;;;5113219;28;20665;-79
2023/12/22 01:54:52;;;;;;;6.33;5.33;;;;;;;;;;5112892;28;20763;-79
2023/12/22 01:57:19;;;;;;;6.77;5.87;;;;;;;;;;5105940;28;20188;-79
2023/12/22 01:59:47;;;;;;;7.13;4.77;;;;;;;;;;5092792;28;20207;-80
2023/12/22 02:02:14;;;;;;;5.57;5.00;;;;;;;;;;5094847;28;20597;-80
2023/12/22 02:04:42;;;;;;;7.70;5.67;;;;;;;;;;5097669;28;20220;-80
2023/12/22 02:07:12;;;;;;;7.03;5.87;;;;;;;;;;5092885;28;20257;-80
2023/12/22 02:09:38;;;;;;;8.83;6.93;;;;;;;;;;5092872;28;20196;-80
2023/12/22 02:12:08;;;;;;;8.93;5.77;;;;;;;;;;5107225;28;20199;-80
2023/12/22 02:14:34;;;;;;;7.37;5.80;;;;;;;;;;5111581;28;20219;-80
2023/12/22 02:17:11;;;;;;;13.60;7.83;;;;;;;;;;5105168;28;20200;-80
2023/12/22 02:19:43;;;;;;;16.53;10.17;;;;;;;;;;5111588;28;20591;-78
2023/12/22 02:22:11;;;;;;;13.90;8.50;;;;;;;;;;5112838;28;20665;-78
2023/12/22 02:24:40;;;;;;;9.67;7.57;;;;;;;;;;5112972;28;20203;-79
2023/12/22 02:27:18;;;;;;;9.80;7.80;;;;;;;;;;5111327;28;20203;-78
2023/12/22 02:29:50;;;;;;;11.70;7.53;;;;;;;;;;5102366;28;20202;-77
2023/12/22 02:32:23;;;;;;;8.90;7.63;;;;;;;;;;5092639;28;20254;-77
2023/12/22 02:34:52;;;;;;;7.83;7.13;;;;;;;;;;5108109;28;20223;-77
2023/12/22 02:37:19;;;;;;;10.33;7.33;;;;;;;;;;5112107;28;20191;-77
2023/12/22 02:39:47;;;;;;;9.17;6.27;;;;;;;;;;5104138;28;20189;-77
2023/12/22 02:42:14;;;;;;;8.60;6.93;;;;;;;;;;5091295;28;20702;-77
2023/12/22 02:44:41;;;;;;;9.17;6.37;;;;;;;;;;5112732;28;20196;-77
2023/12/22 02:47:10;;;;;;;8.23;7.13;;;;;;;;;;5112970;28;20195;-78
2023/12/22 02:49:36;;;;;;;11.47;8.27;;;;;;;;;;5112077;28;20207;-77
2023/12/22 02:52:03;;;;;;;10.13;7.40;;;;;;;;;;5110816;28;20195;-77
2023/12/22 02:54:31;;;;;;;10.73;8.13;;;;;;;;;;5112422;28;20223;-77
2023/12/22 02:57:00;;;;;;;61.67;39.27;;;;;;;;;;5111703;28;20221;-77
2023/12/22 02:59:28;;;;;;;22.03;14.93;;;;;;;;;;5112588;28;20211;-77
2023/12/22 03:01:55;;;;;;;9.93;7.37;;;;;;;;;;5112191;28;20696;-77
2023/12/22 03:04:21;;;;;;;9.00;7.40;;;;;;;;;;5112502;28;20199;-77
2023/12/22 03:06:48;;;;;;;36.10;21.00;;;;;;;;;;5095240;28;20201;-77
2023/12/22 03:09:15;;;;;;;13.73;10.27;;;;;;;;;;5090987;28;20257;-77
2023/12/22 03:11:42;;;;;;;7.50;5.70;;;;;;;;;;5092332;28;20250;-78
2023/12/22 03:14:10;;;;;;;9.80;6.93;;;;;;;;;;5097984;28;20222;-77
2023/12/22 03:16:37;;;;;;;7.83;6.23;;;;;;;;;;5111532;28;20215;-77
2023/12/22 03:19:03;;;;;;;9.63;6.53;;;;;;;;;;5111313;28;20196;-77
2023/12/22 03:21:30;;;;;;;8.50;5.87;;;;;;;;;;5111655;28;20575;-76
2023/12/22 03:23:57;;;;;;;6.37;5.40;;;;;;;;;;5110489;28;20207;-77
2023/12/22 03:26:24;;;;;;;10.37;6.37;;;;;;;;;;5111867;28;20203;-78
2023/12/22 03:28:50;;;;;;;7.23;5.67;;;;;;;;;;5111944;28;20576;-77
2023/12/22 03:31:19;;;;;;;7.97;6.03;;;;;;;;;;5110566;28;20227;-78
2023/12/22 03:33:45;;;;;;;7.33;6.13;;;;;;;;;;5112133;28;20203;-83
2023/12/22 03:36:12;;;;;;;7.10;5.53;;;;;;;;;;5111314;28;20219;-83
2023/12/22 03:38:39;;;;;;;7.43;5.23;;;;;;;;;;5111911;28;20690;-84
2023/12/22 03:41:06;;;;;;;7.87;5.70;;;;;;;;;;5110580;28;20207;-83
2023/12/22 03:43:33;;;;;;;7.90;6.30;;;;;;;;;;5111574;28;20565;-84
2023/12/22 03:46:00;;;;;;;9.77;8.10;;;;;;;;;;5110587;28;20260;-83
2023/12/22 03:48:28;;;;;;;10.93;7.00;;;;;;;;;;5111004;28;20214;-83
2023/12/22 03:50:55;;;;;;;9.73;6.40;;;;;;;;;;5114374;28;20195;-83
2023/12/22 03:53:22;;;;;;;10.90;8.13;;;;;;;;;;5115489;28;20711;-83
2023/12/22 03:55:49;;;;;;;32.37;20.10;;;;;;;;;;5113994;28;20233;-83
2023/12/22 03:58:15;;;;;;;22.73;16.47;;;;;;;;;;5115635;28;20260;-83
2023/12/22 04:00:42;;;;;;;19.23;12.93;;;;;;;;;;5115513;28;20195;-83
2023/12/22 04:03:09;;;;;;;36.97;24.10;;;;;;;;;;5114182;28;20199;-83
2023/12/22 04:05:38;;;;;;;29.83;23.47;;;;;;;;;;5114207;28;20202;-83
2023/12/22 04:08:05;;;;;;;11.43;10.23;;;;;;;;;;5115038;28;20562;-83
2023/12/22 04:10:32;;;;;;;10.17;8.57;;;;;;;;;;5114718;28;20199;-84
2023/12/22 04:13:02;;;;;;;21.70;13.07;;;;;;;;;;5106037;28;20196;-83
2023/12/22 04:15:29;;;;;;;15.90;14.30;;;;;;;;;;5094439;28;20678;-84
2023/12/22 04:17:55;;;;;;;17.13;13.40;;;;;;;;;;5100073;28;20195;-84
2023/12/22 04:20:22;;;;;;;15.93;12.23;;;;;;;;;;5101507;28;20200;-83
2023/12/22 04:22:50;;;;;;;19.53;13.03;;;;;;;;;;5092881;28;20200;-82
2023/12/22 04:25:17;;;;;;;15.03;12.40;;;;;;;;;;5093334;28;20192;-83
2023/12/22 04:27:44;;;;;;;26.73;19.73;;;;;;;;;;5094211;28;20197;-83
2023/12/22 04:30:12;;;;;;;34.23;24.10;;;;;;;;;;5105188;28;20680;-83
2023/12/22 04:32:38;;;;;;;19.87;15.30;;;;;;;;;;5114852;28;20203;-83
2023/12/22 04:35:06;;;;;;;14.97;12.07;;;;;;;;;;5113312;28;20223;-83
2023/12/22 04:37:32;;;;;;;13.07;10.73;;;;;;;;;;5113207;28;20195;-82
2023/12/22 04:40:01;;;;;;;25.20;17.53;;;;;;;;;;5101620;28;20206;-84
2023/12/22 04:42:28;;;;;;;20.63;16.30;;;;;;;;;;5101314;28;20204;-84
2023/12/22 04:44:55;;;;;;;14.37;12.53;;;;;;;;;;5101717;28;20216;-84
2023/12/22 04:47:22;;;;;;;12.93;9.80;;;;;;;;;;5102811;28;20197;-83
2023/12/22 04:49:48;;;;;;;12.83;9.87;;;;;;;;;;5108131;28;20622;-84
2023/12/22 04:52:15;;;;;;;12.77;8.93;;;;;;;;;;5095321;28;20253;-84
2023/12/22 04:54:42;;;;;;;10.40;8.87;;;;;;;;;;5104237;28;20234;-85
2023/12/22 04:57:11;;;;;;;10.00;7.40;;;;;;;;;;5114694;28;20569;-79
2023/12/22 04:59:37;;;;;;;11.97;7.60;;;;;;;;;;5114628;28;20203;-79
2023/12/22 05:02:05;;;;;;;8.07;6.97;;;;;;;;;;5114524;28;20268;-79
2023/12/22 05:04:32;;;;;;;11.30;7.57;;;;;;;;;;5098675;28;20207;-79
2023/12/22 05:06:58;;;;;;;10.60;7.80;;;;;;;;;;5093609;28;20200;-79
2023/12/22 05:09:25;;;;;;;10.83;9.20;;;;;;;;;;5093788;28;20200;-79
2023/12/22 05:11:52;;;;;;;10.07;9.03;;;;;;;;;;5093469;28;20239;-79
2023/12/22 05:14:20;;;;;;;17.37;11.50;;;;;;;;;;5092390;28;20669;-79
2023/12/22 05:16:47;;;;;;;14.07;11.60;;;;;;;;;;5093897;28;20247;-79
2023/12/22 05:19:14;;;;;;;14.57;10.90;;;;;;;;;;5107627;28;20586;-79
2023/12/22 05:21:40;;;;;;;15.23;10.50;;;;;;;;;;5113484;28;20209;-79
2023/12/22 05:24:08;;;;;;;13.07;9.23;;;;;;;;;;5111989;28;20200;-79
2023/12/22 05:26:35;;;;;;;11.70;9.53;;;;;;;;;;5103723;28;20200;-79
2023/12/22 05:29:02;;;;;;;9.53;7.97;;;;;;;;;;5093378;28;20196;-79
2023/12/22 05:31:32;;;;;;;10.53;9.17;;;;;;;;;;5093650;28;20235;-79
2023/12/22 05:34:01;;;;;;;10.87;8.97;;;;;;;;;;5092746;28;20670;-79
2023/12/22 05:36:27;;;;;;;11.43;8.07;;;;;;;;;;5091232;28;20277;-79
2023/12/22 05:38:54;;;;;;;19.20;14.37;;;;;;;;;;5093363;28;20200;-79
2023/12/22 05:41:21;;;;;;;21.90;16.00;;;;;;;;;;5092320;28;20638;-79
2023/12/22 05:43:48;;;;;;;20.17;13.33;;;;;;;;;;5100201;28;20214;-80
2023/12/22 05:46:15;;;;;;;21.10;16.37;;;;;;;;;;5100593;28;20203;-79
2023/12/22 05:48:43;;;;;;;22.30;15.53;;;;;;;;;;5112680;28;20199;-79
2023/12/22 05:51:13;;;;;;;16.73;12.27;;;;;;;;;;5094887;28;20219;-80
2023/12/22 05:53:40;;;;;;;8.33;6.73;;;;;;;;;;5110504;28;20202;-80
2023/12/22 05:56:08;;;;;;;8.70;6.57;;;;;;;;;;5106764;28;20219;-80
2023/12/22 05:58:35;;;;;;;11.53;7.73;;;;;;;;;;5110897;28;20636;-80
2023/12/22 06:01:02;;;;;;;377.63;193.43;;;;;;;;;;5105822;28;20575;-80
2023/12/22 06:03:28;;;;;;;238.70;121.87;;;;;;;;;;5103334;28;20202;-80
2023/12/22 06:05:56;;;;;;;83.43;43.10;;;;;;;;;;5112455;28;20210;-80
2023/12/22 06:08:23;;;;;;;35.63;21.40;;;;;;;;;;5112153;28;20616;-80
2023/12/22 06:10:50;;;;;;;58.83;36.97;;;;;;;;;;5096267;28;20204;-80
2023/12/22 06:13:17;;;;;;;32.47;20.90;;;;;;;;;;5107154;28;20207;-80
2023/12/22 06:15:43;;;;;;;19.33;12.53;;;;;;;;;;5105506;28;20367;-80
2023/12/22 06:18:10;;;;;;;15.17;9.83;;;;;;;;;;5111916;28;20196;-81
2023/12/22 06:20:37;;;;;;;15.43;9.37;;;;;;;;;;5094979;28;20203;-81
2023/12/22 06:23:05;;;;;;;12.87;10.03;;;;;;;;;;5101433;28;20195;-81
2023/12/22 06:25:32;;;;;;;15.40;10.93;;;;;;;;;;5093894;28;20196;-81
2023/12/22 06:27:59;;;;;;;27.77;17.30;;;;;;;;;;5100490;28;20209;-81
2023/12/22 06:30:26;;;;;;;36.17;22.47;;;;;;;;;;5098593;28;20212;-82
2023/12/22 06:32:53;;;;;;;37.27;21.13;;;;;;;;;;5098682;28;20223;-81
2023/12/22 06:35:23;;;;;;;26.47;17.23;;;;;;;;;;5098659;28;20588;-82
2023/12/22 06:37:51;;;;;;;36.40;16.50;;;;;;;;;;5100537;28;20214;-82
2023/12/22 06:40:20;;;;;;;27.03;16.87;;;;;;;;;;5094473;28;20325;-81
2023/12/22 06:42:46;;;;;;;19.03;13.00;;;;;;;;;;5111302;28;20196;-82
2023/12/22 06:45:13;;;;;;;12.57;9.73;;;;;;;;;;5110961;28;20200;-82
2023/12/22 06:47:40;;;;;;;12.43;10.20;;;;;;;;;;5104766;28;20203;-83
2023/12/22 06:50:08;;;;;;;10.90;8.57;;;;;;;;;;5092365;28;20199;-83
2023/12/22 06:52:35;;;;;;;14.37;8.63;;;;;;;;;;5096610;28;20242;-83
2023/12/22 06:55:02;;;;;;;19.33;12.60;;;;;;;;;;5099199;28;20197;-86
2023/12/22 06:57:30;;;;;;;19.57;12.47;;;;;;;;;;5089387;28;20211;-84
2023/12/22 06:59:57;;;;;;;22.57;16.80;;;;;;;;;;5100645;28;20278;-92
2023/12/22 07:02:24;;;;;;;20.03;15.53;;;;;;;;;;5091633;28;20196;-82
2023/12/22 07:05:05;;;;;;;13.83;10.93;;;;;;;;;;5099927;28;20248;-83
2023/12/22 07:07:32;;;;;;;8.77;7.87;;;;;;;;;;5111578;28;20210;-82
2023/12/22 07:10:02;;;;;;;17.27;10.13;;;;;;;;;;5110471;28;20191;-83
2023/12/22 07:12:30;;;;;;;12.37;9.83;;;;;;;;;;5111478;28;20203;-86
2023/12/22 07:14:57;;;;;;;19.80;15.17;;;;;;;;;;5111424;28;20593;-82
2023/12/22 07:17:24;;;;;;;20.40;14.17;;;;;;;;;;5110733;28;20663;-81
2023/12/22 07:19:52;;;;;;;17.97;13.27;;;;;;;;;;5111041;28;20196;-81
2023/12/22 07:22:21;;;;;;;21.73;13.03;;;;;;;;;;5109479;28;20249;-84
2023/12/22 07:24:49;;;;;;;15.23;11.33;;;;;;;;;;5092993;28;20290;-83
2023/12/22 07:27:16;;;;;;;13.73;10.27;;;;;;;;;;5097372;28;20279;-81
2023/12/22 07:29:44;;;;;;;12.13;10.10;;;;;;;;;;5113482;28;20233;-83
2023/12/22 07:32:11;;;;;;;17.23;10.97;;;;;;;;;;5115454;28;20639;-85
2023/12/22 07:34:38;;;;;;;15.20;12.00;;;;;;;;;;5114782;28;20214;-82
2023/12/22 07:37:05;;;;;;;16.90;11.40;;;;;;;;;;5114833;28;20247;-83
2023/12/22 07:39:32;;;;;;;15.53;11.57;;;;;;;;;;5108151;28;20651;-80
2023/12/22 07:42:01;;;;;;;31.67;24.63;;;;;;;;;;5112521;28;20203;-81
2023/12/22 07:44:28;;;;;;;34.57;27.27;;;;;;;;;;5105842;28;20194;-80
2023/12/22 07:47:01;;;;;;;45.50;34.60;;;;;;;;;;5097692;28;20192;-80
2023/12/22 07:49:28;;;;;;;22.90;15.37;;;;;;;;;;5096983;28;20192;-81
2023/12/22 07:51:54;;;;;;;21.93;15.57;;;;;;;;;;5104581;28;20291;-79
2023/12/22 07:54:21;;;;;;;26.17;20.10;;;;;;;;;;5106570;28;20191;-79
2023/12/22 07:56:48;;;;;;;31.40;18.77;;;;;;;;;;5110063;28;20211;-79
2023/12/22 07:59:15;;;;;;;30.30;20.40;;;;;;;;;;5114237;28;20195;-78
2023/12/22 08:01:42;;;;;;;17.33;13.13;;;;;;;;;;5109425;28;20192;-83
2023/12/22 08:04:13;;;;;;;17.77;13.07;;;;;;;;;;5101142;28;20254;-81
2023/12/22 08:06:40;;;;;;;10.40;8.63;;;;;;;;;;5110367;28;20199;-87
2023/12/22 08:09:07;;;;;;;9.63;8.33;;;;;;;;;;5114489;28;20191;-83
2023/12/22 08:11:34;;;;;;;8.63;7.27;;;;;;;;;;5114175;28;20202;-80
2023/12/22 08:14:00;;;;;;;10.77;7.67;;;;;;;;;;5113707;28;20260;-81
2023/12/22 08:16:27;;;;;;;9.70;8.37;;;;;;;;;;5105645;28;20220;-80
2023/12/22 08:18:54;;;;;;;14.47;8.70;;;;;;;;;;5108448;28;20199;-79
2023/12/22 08:21:22;;;;;;;17.50;10.30;;;;;;;;;;5113816;28;20248;-81
2023/12/22 08:23:49;;;;;;;20.10;14.00;;;;;;;;;;5113512;28;20670;-82
2023/12/22 08:26:17;;;;;;;17.83;14.13;;;;;;;;;;5113508;28;20249;-82
2023/12/22 08:28:44;;;;;;;20.13;13.67;;;;;;;;;;5107861;28;20226;-82
2023/12/22 08:31:12;;;;;;;15.27;11.17;;;;;;;;;;5107640;28;20231;-86
2023/12/22 08:33:40;;;;;;;14.10;11.87;;;;;;;;;;5092679;28;20196;-83
2023/12/22 08:36:08;;;;;;;19.37;12.53;;;;;;;;;;5113501;28;20259;-84
2023/12/22 08:38:39;;;;;;;24.50;19.67;;;;;;;;;;5113431;28;20203;-82
2023/12/22 08:41:06;;;;;;;30.17;22.57;;;;;;;;;;5113943;28;20195;-84
2023/12/22 08:43:33;;;;;;;20.97;15.67;;;;;;;;;;5113346;28;20200;-82
2023/12/22 08:46:02;;;;;;;27.43;16.60;;;;;;;;;;5112259;28;20199;-86
2023/12/22 08:48:28;;;;;;;17.63;15.20;;;;;;;;;;5107781;28;20199;-85
2023/12/22 08:50:55;;;;;;;22.93;14.93;;;;;;;;;;5110781;28;20268;-84
2023/12/22 08:53:22;;;;;;;22.50;13.37;;;;;;;;;;5101153;28;20200;-85
2023/12/22 08:55:50;;;;;;;24.33;14.30;;;;;;;;;;5101405;28;20215;-87
2023/12/22 08:58:18;;;;;;;31.17;14.83;;;;;;;;;;5101818;28;20203;-88
2023/12/22 09:00:45;;;;;;;19.23;11.50;;;;;;;;;;5113577;28;20199;-87
2023/12/22 09:03:12;;;;;;;21.03;13.57;;;;;;;;;;5112855;28;20199;-83
2023/12/22 09:05:39;;;;;;;11.90;10.03;;;;;;;;;;5112768;28;20202;-79
2023/12/22 09:08:06;;;;;;;28.93;14.50;;;;;;;;;;5105722;28;20201;-82
2023/12/22 09:10:33;;;;;;;23.57;17.37;;;;;;;;;;5104938;28;20228;-81
2023/12/22 09:13:01;;;;;;;22.17;16.67;;;;;;;;;;5110703;28;20192;-83
2023/12/22 09:15:28;;;;;;;31.17;21.03;;;;;;;;;;5112778;28;20625;-82
2023/12/22 09:17:55;;;;;;;52.17;32.93;;;;;;;;;;5105175;28;20230;-83
2023/12/22 09:20:22;;;;;;;42.40;27.87;;;;;;;;;;5109853;28;20227;-84
2023/12/22 09:22:49;;;;;;;45.50;26.53;;;;;;;;;;5107044;28;20208;-81
2023/12/22 09:25:16;;;;;;;52.60;35.40;;;;;;;;;;5106278;28;20187;-83
2023/12/22 09:27:43;;;;;;;40.10;26.70;;;;;;;;;;5110277;28;20246;-80
2023/12/22 09:30:12;;;;;;;33.33;23.37;;;;;;;;;;5113182;28;20199;-80
2023/12/22 09:32:39;;;;;;;19.70;16.27;;;;;;;;;;5093479;28;20184;-81
2023/12/22 09:35:07;;;;;;;22.33;15.87;;;;;;;;;;5111816;28;20192;-80
2023/12/22 09:37:34;;;;;;;19.30;15.73;;;;;;;;;;5112999;28;20238;-80
2023/12/22 09:40:01;;;;;;;19.40;12.77;;;;;;;;;;5112046;28;20200;-81
2023/12/22 09:42:27;;;;;;;11.07;8.07;;;;;;;;;;5113114;28;20195;-81
2023/12/22 09:44:54;;;;;;;18.13;11.87;;;;;;;;;;5113364;28;20248;-82
2023/12/22 09:47:24;;;;;;;15.53;11.57;;;;;;;;;;5100725;28;20283;-81
2023/12/22 09:49:51;;;;;;;16.90;11.27;;;;;;;;;;5092588;28;20232;-81
2023/12/22 09:52:17;;;;;;;12.20;10.03;;;;;;;;;;5093120;28;20196;-83
2023/12/22 09:54:46;;;;;;;13.17;10.90;;;;;;;;;;5097056;28;20662;-83
2023/12/22 09:57:14;;;;;;;14.23;10.50;;;;;;;;;;5111799;28;20695;-86
2023/12/22 09:59:41;;;;;;;11.10;9.17;;;;;;;;;;5112831;28;20603;-82
2023/12/22 10:02:09;;;;;;;13.83;8.80;;;;;;;;;;5112477;28;20195;-81
2023/12/22 10:04:37;;;;;;;10.10;8.07;;;;;;;;;;5112982;28;20248;-81
2023/12/22 10:07:05;;;;;;;16.27;8.63;;;;;;;;;;5107694;28;20189;-82
2023/12/22 10:09:32;;;;;;;8.93;7.47;;;;;;;;;;5094843;28;20203;-82
2023/12/22 10:12:00;;;;;;;11.13;8.00;;;;;;;;;;5112022;28;20203;-86
2023/12/22 10:14:27;;;;;;;9.90;6.77;;;;;;;;;;5078647;28;20215;-85
2023/12/22 10:16:54;;;;;;;7.30;5.60;;;;;;;;;;5104861;28;20226;-84
2023/12/22 10:19:21;;;;;;;17.27;9.57;;;;;;;;;;5101932;28;20192;-83
2023/12/22 10:21:50;;;;;;;14.83;11.10;;;;;;;;;;5103142;28;20188;-85
2023/12/22 10:24:39;;;;;;;18.83;8.43;;;;;;;;;;5092322;28;20596;-88
2023/12/22 10:27:07;;;;;;;11.13;7.40;;;;;;;;;;5111880;28;20203;-84
2023/12/22 10:29:34;;;;;;;9.23;7.40;;;;;;;;;;5110473;28;20199;-78
2023/12/22 10:32:02;;;;;;;13.17;8.77;;;;;;;;;;5109319;28;20222;-82
2023/12/22 10:34:29;;;;;;;10.17;8.30;;;;;;;;;;5111137;28;20661;-80
2023/12/22 10:36:57;;;;;;;15.73;12.90;;;;;;;;;;5111561;28;20222;-82
2023/12/22 10:39:24;;;;;;;16.97;13.03;;;;;;;;;;5112244;28;20199;-83
2023/12/22 10:41:51;;;;;;;17.97;12.47;;;;;;;;;;5111129;28;20199;-81
2023/12/22 10:44:19;;;;;;;15.03;10.00;;;;;;;;;;5110920;28;20188;-82
2023/12/22 10:46:48;;;;;;;12.07;9.90;;;;;;;;;;5112562;28;20305;-81
2023/12/22 10:49:15;;;;;;;12.27;9.73;;;;;;;;;;5111371;28;20188;-82
2023/12/22 10:51:42;;;;;;;14.00;11.57;;;;;;;;;;5112122;28;20191;-81
2023/12/22 10:54:13;;;;;;;14.63;11.50;;;;;;;;;;5110927;28;20576;-80
2023/12/22 10:56:40;;;;;;;10.67;8.50;;;;;;;;;;5111348;28;20222;-80
2023/12/22 10:59:07;;;;;;;8.53;5.20;;;;;;;;;;5112364;28;20198;-83
2023/12/22 11:01:34;;;;;;;6.43;5.00;;;;;;;;;;5116334;28;20199;-83
2023/12/22 11:04:04;;;;;;;7.30;5.10;;;;;;;;;;5115043;28;20196;-81
2023/12/22 11:06:31;;;;;;;6.30;4.50;;;;;;;;;;5104224;28;20562;-78
2023/12/22 11:09:00;;;;;;;7.07;4.90;;;;;;;;;;5113448;28;20192;-78
2023/12/22 11:11:32;;;;;;;5.53;4.70;;;;;;;;;;5113679;28;20323;-78
2023/12/22 11:13:59;;;;;;;6.07;5.47;;;;;;;;;;5094885;28;20215;-78
2023/12/22 11:16:26;;;;;;;6.40;4.80;;;;;;;;;;5107595;28;20244;-80
2023/12/22 11:18:54;;;;;;;6.93;5.50;;;;;;;;;;5108838;28;20227;-78
2023/12/22 11:21:22;;;;;;;9.37;6.37;;;;;;;;;;5115156;28;20672;-79
2023/12/22 11:23:50;;;;;;;10.10;8.43;;;;;;;;;;5109849;28;20574;-79
2023/12/22 11:26:18;;;;;;;7.07;6.23;;;;;;;;;;5112332;28;20195;-78
2023/12/22 11:28:46;;;;;;;5.43;4.40;;;;;;;;;;5115045;28;20198;-78
2023/12/22 11:31:13;;;;;;;6.93;4.97;;;;;;;;;;5101944;28;20216;-78
2023/12/22 11:33:44;;;;;;;4.13;3.73;;;;;;;;;;5099447;28;20202;-78
2023/12/22 11:36:12;;;;;;;4.67;3.87;;;;;;;;;;5114483;28;20677;-78
2023/12/22 11:38:39;;;;;;;5.67;4.87;;;;;;;;;;5114092;28;20219;-75
2023/12/22 11:41:07;;;;;;;5.40;4.87;;;;;;;;;;5112193;28;20200;-76
2023/12/22 11:43:35;;;;;;;7.60;4.90;;;;;;;;;;5107115;28;20211;-92
2023/12/22 11:46:04;;;;;;;6.93;5.03;;;;;;;;;;5097025;28;20196;-85
2023/12/22 11:48:31;;;;;;;5.83;4.20;;;;;;;;;;5114151;28;20211;-82
2023/12/22 11:51:00;;;;;;;4.63;4.23;;;;;;;;;;5114945;28;20202;-84
2023/12/22 11:53:32;;;;;;;26.97;14.57;;;;;;;;;;5115243;28;20226;-84
2023/12/22 11:56:04;;;;;;;8.17;6.97;;;;;;;;;;5113489;28;20199;-83
2023/12/22 11:58:40;;;;;;;7.00;4.87;;;;;;;;;;5114216;28;20257;-82
2023/12/22 12:01:09;;;;;;;4.57;3.80;;;;;;;;;;5115074;28;20538;-83
2023/12/22 12:03:42;;;;;;;4.70;4.30;;;;;;;;;;5113875;28;20187;-89
2023/12/22 12:06:16;;;;;;;4.20;3.80;;;;;;;;;;5115230;28;20673;-82
2023/12/22 12:08:43;;;;;;;4.33;3.57;;;;;;;;;;5113839;28;20195;-83
2023/12/22 12:11:10;;;;;;;4.20;3.80;;;;;;;;;;5112272;28;20191;-88
2023/12/22 12:13:42;;;;;;;78.47;36.60;;;;;;;;;;5109308;28;20222;-84
2023/12/22 12:16:12;;;;;;;47.50;30.60;;;;;;;;;;5112269;28;20195;-90
2023/12/22 12:18:40;;;;;;;12.93;5.87;;;;;;;;;;5100424;28;20215;-89
2023/12/22 12:21:08;;;;;;;7.30;4.90;;;;;;;;;;5116229;28;20191;-89
2023/12/22 12:23:35;;;;;;;6.77;4.03;;;;;;;;;;5114882;28;20242;-90
2023/12/22 12:26:03;;;;;;;5.17;4.40;;;;;;;;;;5114818;28;20207;-84
2023/12/22 12:28:31;;;;;;;4.57;3.40;;;;;;;;;;5083460;28;20219;-87
2023/12/22 12:30:59;;;;;;;5.73;4.93;;;;;;;;;;5113607;28;20307;-84
2023/12/22 12:33:28;;;;;;;11.50;5.10;;;;;;;;;;5115053;28;20238;-83
2023/12/22 12:35:57;;;;;;;13.80;7.43;;;;;;;;;;5112827;28;20207;-84
2023/12/22 12:38:35;;;;;;;11.63;7.83;;;;;;;;;;5114570;28;20223;-92
2023/12/22 12:41:05;;;;;;;9.67;8.47;;;;;;;;;;5115089;28;20210;-90
2023/12/22 12:43:32;;;;;;;8.83;7.40;;;;;;;;;;5114332;28;20199;-81
2023/12/22 12:46:05;;;;;;;6.63;6.00;;;;;;;;;;5096677;28;20241;-93
2023/12/22 12:48:33;;;;;;;6.40;4.33;;;;;;;;;;5115272;28;20234;-89
2023/12/22 12:51:05;;;;;;;8.03;6.17;;;;;;;;;;5114825;28;20541;-90
2023/12/22 12:53:33;;;;;;;7.63;6.50;;;;;;;;;;5115349;28;20207;-88
2023/12/22 12:56:00;;;;;;;6.50;5.83;;;;;;;;;;5115066;28;20250;-83
2023/12/22 12:58:30;;;;;;;31.30;18.17;;;;;;;;;;5114567;28;20634;-85
2023/12/22 13:01:06;;;;;;;19.40;14.17;;;;;;;;;;5114281;28;20234;-82
2023/12/22 13:03:34;;;;;;;18.87;12.83;;;;;;;;;;5114247;28;20195;-84
2023/12/22 13:06:09;;;;;;;18.47;13.50;;;;;;;;;;5113799;28;20206;-84
2023/12/22 13:08:37;;;;;;;21.20;12.53;;;;;;;;;;5114824;28;20525;-86
2023/12/22 13:11:06;;;;;;;20.30;13.33;;;;;;;;;;5113490;28;20257;-82
2023/12/22 13:13:42;;;;;;;13.67;9.07;;;;;;;;;;5095653;28;20203;-82
2023/12/22 13:16:10;;;;;;;13.63;8.40;;;;;;;;;;5114423;28;20607;-81
2023/12/22 13:18:39;;;;;;;11.13;8.83;;;;;;;;;;5114395;28;20219;-82
2023/12/22 13:21:06;;;;;;;8.60;7.07;;;;;;;;;;5114781;28;20207;-83
2023/12/22 13:23:33;;;;;;;7.83;7.03;;;;;;;;;;5113750;28;20670;-84
2023/12/22 13:26:00;;;;;;;12.10;7.83;;;;;;;;;;5095201;28;20203;-83
2023/12/22 13:28:27;;;;;;;7.70;5.83;;;;;;;;;;5091613;28;20203;-88
2023/12/22 13:30:54;;;;;;;6.10;5.53;;;;;;;;;;5074729;28;20269;-83
2023/12/22 13:33:22;;;;;;;8.70;5.63;;;;;;;;;;5101157;28;20200;-82
2023/12/22 13:35:50;;;;;;;15.23;10.80;;;;;;;;;;5114377;28;20218;-83
2023/12/22 13:38:17;;;;;;;23.50;20.90;;;;;;;;;;5083854;28;20232;-83
2023/12/22 13:40:46;;;;;;;16.90;15.07;;;;;;;;;;5073035;28;20213;-93
2023/12/22 13:43:15;;;;;;;10.80;9.23;;;;;;;;;;5091111;28;20211;-81
2023/12/22 13:45:42;;;;;;;13.63;10.30;;;;;;;;;;5108295;28;20196;-84
2023/12/22 13:48:12;;;;;;;16.83;11.27;;;;;;;;;;5113648;28;20191;-86
2023/12/22 13:50:40;;;;;;;17.63;13.37;;;;;;;;;;5112974;28;20206;-81
2023/12/22 13:53:12;;;;;;;16.50;12.63;;;;;;;;;;5091247;28;20200;-81
2023/12/22 13:55:38;;;;;;;14.37;12.77;;;;;;;;;;5113398;28;20203;-80
2023/12/22 13:58:05;;;;;;;10.73;8.57;;;;;;;;;;5111438;28;20223;-81
2023/12/22 14:00:32;;;;;;;9.53;7.53;;;;;;;;;;5113269;28;20198;-80
2023/12/22 14:02:59;;;;;;;9.30;8.37;;;;;;;;;;5113431;28;20199;-80
2023/12/22 14:05:28;;;;;;;15.67;12.07;;;;;;;;;;5111170;28;20195;-81
2023/12/22 14:07:55;;;;;;;10.33;9.10;;;;;;;;;;5112025;28;20210;-80
2023/12/22 14:10:23;;;;;;;8.47;7.23;;;;;;;;;;5112389;28;20196;-77
2023/12/22 14:12:50;;;;;;;13.40;8.27;;;;;;;;;;5106395;28;20209;-80
2023/12/22 14:15:17;;;;;;;11.37;10.13;;;;;;;;;;5108475;28;20662;-81
2023/12/22 14:17:44;;;;;;;12.70;9.83;;;;;;;;;;5106564;28;20223;-80
2023/12/22 14:20:11;;;;;;;11.37;7.40;;;;;;;;;;5099911;28;20579;-81
2023/12/22 14:22:38;;;;;;;10.00;7.80;;;;;;;;;;5112827;28;20623;-80
2023/12/22 14:25:06;;;;;;;8.47;6.87;;;;;;;;;;5111167;28;20203;-76
2023/12/22 14:27:35;;;;;;;9.10;7.43;;;;;;;;;;5111982;28;20206;-84
2023/12/22 14:30:01;;;;;;;21.60;12.80;;;;;;;;;;5112121;28;20195;-81
2023/12/22 14:32:29;;;;;;;25.83;18.17;;;;;;;;;;5112004;28;20195;-82